createdAt,value
2022-11-24T00:02:12.135Z,81.61
2022-11-24T00:04:40.115Z,84.42
2022-11-24T00:07:08.006Z,83.10
2022-11-24T00:09:37.380Z,83.08
2022-11-24T00:12:05.799Z,83.99
2022-11-24T00:14:33.885Z,82.30
2022-11-24T00:17:02.026Z,83.31
2022-11-24T00:19:29.971Z,81.36
2022-11-24T00:21:57.958Z,80.27
2022-11-24T00:24:25.854Z,81.98
2022-11-24T00:26:55.042Z,81.35
2022-11-24T00:29:23.095Z,80.38
2022-11-24T00:31:50.916Z,79.28
2022-11-24T00:34:18.890Z,79.88
2022-11-24T00:36:46.876Z,80.96
2022-11-24T00:39:17.298Z,81.19
2022-11-24T00:41:46.226Z,83.18
2022-11-24T00:44:15.631Z,82.60
2022-11-24T00:46:43.879Z,83.01
2022-11-24T00:49:11.921Z,81.58
2022-11-24T00:51:39.862Z,82.36
2022-11-24T00:54:07.912Z,84.49
2022-11-24T00:56:35.950Z,84.49
2022-11-24T00:59:04.272Z,84.49
2022-11-24T01:01:33.633Z,85.04
2022-11-24T01:04:02.606Z,84.21
2022-11-24T01:06:32.374Z,83.53
2022-11-24T01:09:00.656Z,85.16
2022-11-24T01:11:50.946Z,82.59
2022-11-24T01:14:19.438Z,83.51
2022-11-24T01:16:49.008Z,82.03
2022-11-24T01:19:17.019Z,81.90
2022-11-24T01:21:44.929Z,82.13
2022-11-24T01:24:13.326Z,81.37
2022-11-24T01:26:41.407Z,81.17
2022-11-24T01:29:11.879Z,81.60
2022-11-24T01:31:40.133Z,81.24
2022-11-24T01:34:09.730Z,83.01
2022-11-24T01:36:37.912Z,83.18
2022-11-24T01:39:05.963Z,83.96
2022-11-24T01:41:35.965Z,85.34
2022-11-24T01:44:22.476Z,84.33
2022-11-24T01:46:56.426Z,83.59
2022-11-24T01:49:28.900Z,83.68
2022-11-24T01:52:00.671Z,83.62
2022-11-24T01:54:32.623Z,83.00
2022-11-24T01:57:13.864Z,83.45
2022-11-24T01:59:42.552Z,82.74
2022-11-24T02:02:10.907Z,82.93
2022-11-24T02:04:41.404Z,83.06
2022-11-24T02:07:10.008Z,81.79
2022-11-24T02:09:44.482Z,82.47
2022-11-24T02:12:12.847Z,81.73
2022-11-24T02:14:43.139Z,81.99
2022-11-24T02:17:11.104Z,81.59
2022-11-24T02:19:49.816Z,82.70
2022-11-24T02:22:23.215Z,82.26
2022-11-24T02:24:56.422Z,82.67
2022-11-24T02:27:25.687Z,82.00
2022-11-24T02:29:53.854Z,80.98
2022-11-24T02:32:21.758Z,80.00
2022-11-24T02:34:49.726Z,79.36
2022-11-24T02:37:17.696Z,80.21
2022-11-24T02:39:45.559Z,80.87
2022-11-24T02:42:14.721Z,82.83
2022-11-24T02:44:48.862Z,81.75
2022-11-24T02:47:16.938Z,81.83
2022-11-24T02:49:44.810Z,81.93
2022-11-24T02:52:12.786Z,80.77
2022-11-24T02:54:40.778Z,80.38
2022-11-24T02:57:09.079Z,81.22
2022-11-24T02:59:36.972Z,81.90
2022-11-24T03:02:06.366Z,83.20
2022-11-24T03:04:34.443Z,83.68
2022-11-24T03:07:02.742Z,84.98
2022-11-24T03:09:31.881Z,84.13
2022-11-24T03:11:59.831Z,83.02
2022-11-24T03:14:27.819Z,81.71
2022-11-24T03:16:55.860Z,84.28
2022-11-24T03:19:25.201Z,83.91
2022-11-24T03:21:53.123Z,82.35
2022-11-24T03:24:21.056Z,82.97
2022-11-24T03:26:49.067Z,83.48
2022-11-24T03:29:16.963Z,84.39
2022-11-24T03:31:44.947Z,83.04
2022-11-24T03:34:12.884Z,81.96
2022-11-24T03:36:42.212Z,82.42
2022-11-24T03:39:10.243Z,83.87
2022-11-24T03:41:38.092Z,83.10
2022-11-24T03:44:06.330Z,82.78
2022-11-24T03:46:34.455Z,83.70
2022-11-24T03:49:02.695Z,84.35
2022-11-24T03:51:30.619Z,84.05
2022-11-24T03:54:00.006Z,83.23
2022-11-24T03:56:27.939Z,83.47
2022-11-24T03:58:56.101Z,82.64
2022-11-24T04:01:24.073Z,84.36
2022-11-24T04:03:52.011Z,83.90
2022-11-24T04:06:20.066Z,83.75
2022-11-24T04:08:48.039Z,84.07
2022-11-24T04:11:31.251Z,84.17
2022-11-24T04:13:59.206Z,83.00
2022-11-24T04:16:27.296Z,84.12
2022-11-24T04:18:55.265Z,84.47
2022-11-24T04:21:23.163Z,83.76
2022-11-24T04:23:51.313Z,82.39
2022-11-24T04:26:20.690Z,84.86
2022-11-24T04:28:48.654Z,83.49
2022-11-24T04:31:16.902Z,84.83
2022-11-24T04:33:45.024Z,85.28
2022-11-24T04:36:12.928Z,85.00
2022-11-24T04:39:19.815Z,85.73
2022-11-24T04:41:30.163Z,85.25
2022-11-24T04:43:58.052Z,84.14
2022-11-24T04:46:26.133Z,82.11
2022-11-24T04:48:54.074Z,82.16
2022-11-24T04:51:22.090Z,81.81
2022-11-24T04:53:50.373Z,82.59
2022-11-24T04:56:18.339Z,82.13
2022-11-24T04:58:49.439Z,81.80
2022-11-24T05:01:17.419Z,82.08
2022-11-24T05:03:45.471Z,81.55
2022-11-24T05:06:13.453Z,81.28
2022-11-24T05:08:41.460Z,83.68
2022-11-24T05:11:09.399Z,82.89
2022-11-24T05:13:37.287Z,82.95
2022-11-24T05:16:06.849Z,82.30
2022-11-24T05:18:34.877Z,81.17
2022-11-24T05:21:03.020Z,80.70
2022-11-24T05:23:31.183Z,80.12
2022-11-24T05:26:01.094Z,79.83
2022-11-24T05:28:30.139Z,80.38
2022-11-24T05:31:00.611Z,80.49
2022-11-24T05:33:33.289Z,80.23
2022-11-24T05:36:03.159Z,79.46
2022-11-24T05:38:31.276Z,79.06
2022-11-24T05:41:01.778Z,79.68
2022-11-24T05:43:30.376Z,79.85
2022-11-24T05:46:00.312Z,78.62
2022-11-24T05:48:29.823Z,78.58
2022-11-24T05:50:59.627Z,78.61
2022-11-24T05:53:27.642Z,78.28
2022-11-24T05:55:55.624Z,79.15
2022-11-24T05:58:23.439Z,79.23
2022-11-24T06:00:51.372Z,82.13
2022-11-24T06:03:19.248Z,82.99
2022-11-24T06:05:48.829Z,82.06
2022-11-24T06:08:16.965Z,80.90
2022-11-24T06:10:44.823Z,80.26
2022-11-24T06:13:12.864Z,82.06
2022-11-24T06:15:41.454Z,81.74
2022-11-24T06:18:09.323Z,80.90
2022-11-24T06:20:37.220Z,80.54
2022-11-24T06:23:06.453Z,80.66
2022-11-24T06:25:34.792Z,79.99
2022-11-24T06:28:04.848Z,79.05
2022-11-24T06:30:32.791Z,80.63
2022-11-24T06:33:00.992Z,80.58
2022-11-24T06:35:28.940Z,80.45
2022-11-24T06:37:56.811Z,81.30
2022-11-24T06:40:26.147Z,79.51
2022-11-24T06:42:54.331Z,79.50
2022-11-24T06:45:23.425Z,78.58
2022-11-24T06:47:54.335Z,78.18
2022-11-24T06:50:22.444Z,78.24
2022-11-24T06:52:50.476Z,77.64
2022-11-24T06:55:18.462Z,77.71
2022-11-24T06:57:47.721Z,78.35
2022-11-24T07:00:16.431Z,78.14
2022-11-24T07:02:46.090Z,80.08
2022-11-24T07:05:14.378Z,79.34
2022-11-24T07:07:42.388Z,79.94
2022-11-24T07:10:10.717Z,80.12
2022-11-24T07:12:38.612Z,79.43
2022-11-24T07:15:09.526Z,79.51
2022-11-24T07:17:38.041Z,80.78
2022-11-24T07:20:07.558Z,80.46
2022-11-24T07:22:36.122Z,79.47
2022-11-24T07:25:07.291Z,78.27
2022-11-24T07:27:35.240Z,78.93
2022-11-24T07:30:03.433Z,78.47
2022-11-24T07:32:32.987Z,79.70
2022-11-24T07:35:01.009Z,79.20
2022-11-24T07:37:31.651Z,79.49
2022-11-24T07:39:59.870Z,78.88
2022-11-24T07:42:28.591Z,78.04
2022-11-24T07:44:56.573Z,80.11
2022-11-24T07:47:24.505Z,79.43
2022-11-24T07:49:53.914Z,78.07
2022-11-24T07:52:21.795Z,77.24
2022-11-24T07:54:49.772Z,77.18
2022-11-24T07:57:17.653Z,76.15
2022-11-24T07:59:45.698Z,77.12
2022-11-24T08:02:14.387Z,77.28
2022-11-24T08:04:42.465Z,77.16
2022-11-24T08:07:11.812Z,76.84
2022-11-24T08:09:39.884Z,76.18
2022-11-24T08:12:08.244Z,76.29
2022-11-24T08:14:36.437Z,75.36
2022-11-24T08:17:04.580Z,76.96
2022-11-24T08:19:32.748Z,77.33
2022-11-24T08:22:00.714Z,77.50
2022-11-24T08:24:31.446Z,78.14
2022-11-24T08:26:59.606Z,77.34
2022-11-24T08:29:29.640Z,76.32
2022-11-24T08:31:58.386Z,75.87
2022-11-24T08:34:27.041Z,77.10
2022-11-24T08:36:55.008Z,76.51
2022-11-24T08:39:23.062Z,76.15
2022-11-24T08:41:52.378Z,78.48
2022-11-24T08:44:20.312Z,77.65
2022-11-24T08:46:48.317Z,78.79
2022-11-24T08:49:16.185Z,78.28
2022-11-24T08:51:44.336Z,78.74
2022-11-24T08:54:13.454Z,78.42
2022-11-24T08:56:41.379Z,76.78
2022-11-24T08:59:13.248Z,78.09
2022-11-24T09:01:41.735Z,79.34
2022-11-24T09:04:09.790Z,78.26
2022-11-24T09:06:37.736Z,77.04
2022-11-24T09:09:05.567Z,77.87
2022-11-24T09:11:35.020Z,78.00
2022-11-24T09:14:03.105Z,76.57
2022-11-24T09:16:32.383Z,76.08
2022-11-24T09:19:02.039Z,76.13
2022-11-24T09:21:31.442Z,75.52
2022-11-24T09:23:59.282Z,76.02
2022-11-24T09:26:28.639Z,75.02
2022-11-24T09:28:58.082Z,76.24
2022-11-24T09:31:28.605Z,76.35
2022-11-24T09:33:58.212Z,74.66
2022-11-24T09:36:26.681Z,75.42
2022-11-24T09:38:54.729Z,74.52
2022-11-24T09:41:40.409Z,75.32
2022-11-24T09:44:28.221Z,74.95
2022-11-24T09:47:04.142Z,74.20
2022-11-24T09:49:39.672Z,74.27
2022-11-24T09:52:14.104Z,73.87
2022-11-24T09:54:50.203Z,73.41
2022-11-24T09:57:20.903Z,72.54
2022-11-24T09:59:48.806Z,73.19
2022-11-24T10:02:16.701Z,72.65
2022-11-24T10:04:48.101Z,72.57
2022-11-24T10:07:24.318Z,74.22
2022-11-24T10:10:04.570Z,74.64
2022-11-24T10:12:46.879Z,74.62
2022-11-24T10:15:25.554Z,75.97
2022-11-24T10:18:14.925Z,76.49
2022-11-24T10:20:56.097Z,76.28
2022-11-24T10:23:55.661Z,75.20
2022-11-24T10:26:31.927Z,74.38
2022-11-24T10:29:00.010Z,72.89
2022-11-24T10:31:35.279Z,72.47
2022-11-24T10:34:14.782Z,74.10
2022-11-24T10:36:50.544Z,74.02
2022-11-24T10:39:24.925Z,72.96
2022-11-24T10:41:55.975Z,72.39
2022-11-24T10:44:24.072Z,72.17
2022-11-24T10:46:52.429Z,71.42
2022-11-24T10:49:24.822Z,71.36
2022-11-24T10:52:05.920Z,71.05
2022-11-24T10:54:35.903Z,70.98
2022-11-24T10:57:04.095Z,70.60
2022-11-24T10:59:38.668Z,70.28
2022-11-24T11:02:32.369Z,67.35
2022-11-24T11:05:20.555Z,67.84
2022-11-24T11:07:50.003Z,70.20
2022-11-24T11:10:21.904Z,69.62
2022-11-24T11:12:51.056Z,69.81
2022-11-24T11:15:27.397Z,71.05
2022-11-24T11:17:59.509Z,69.21
2022-11-24T11:20:32.910Z,70.49
2022-11-24T11:23:15.039Z,70.05
2022-11-24T11:25:43.696Z,68.99
2022-11-24T11:28:27.825Z,68.62
2022-11-24T11:31:16.427Z,68.20
2022-11-24T11:34:06.174Z,68.50
2022-11-24T11:36:40.614Z,68.33
2022-11-24T11:39:21.536Z,70.24
2022-11-24T11:41:53.154Z,70.86
2022-11-24T11:44:33.664Z,69.83
2022-11-24T11:47:10.271Z,70.21
2022-11-24T11:49:40.301Z,71.79
2022-11-24T11:52:35.713Z,71.90
2022-11-24T11:55:25.915Z,72.76
2022-11-24T11:58:07.944Z,69.46
2022-11-24T12:00:40.528Z,69.92
2022-11-24T12:03:29.591Z,71.80
2022-11-24T12:06:08.405Z,70.26
2022-11-24T12:09:17.804Z,70.33
2022-11-24T12:11:40.391Z,69.93
2022-11-24T12:14:18.481Z,70.07
2022-11-24T12:16:54.431Z,70.08
2022-11-24T12:19:41.051Z,69.56
2022-11-24T12:22:20.270Z,71.04
2022-11-24T12:24:56.802Z,72.67
2022-11-24T12:27:39.057Z,70.04
2022-11-24T12:30:12.505Z,69.67
2022-11-24T12:33:05.730Z,69.09
2022-11-24T12:35:38.321Z,69.97
2022-11-24T12:38:26.075Z,69.17
2022-11-24T12:41:39.651Z,68.66
2022-11-24T12:44:01.785Z,68.92
2022-11-24T12:46:39.766Z,68.90
2022-11-24T12:49:18.836Z,68.89
2022-11-24T12:51:53.578Z,69.74
2022-11-24T12:54:22.871Z,70.41
2022-11-24T12:56:57.058Z,70.51
2022-11-24T12:59:35.767Z,69.84
2022-11-24T13:02:17.935Z,70.06
2022-11-24T13:04:52.814Z,68.46
2022-11-24T13:07:28.214Z,68.62
2022-11-24T13:13:19.604Z,69.95
2022-11-24T13:19:10.638Z,68.44
2022-11-24T13:22:01.091Z,68.16
2022-11-24T13:24:31.859Z,68.22
2022-11-24T13:27:37.119Z,68.11
2022-11-24T13:30:52.437Z,70.79
2022-11-24T13:33:39.881Z,72.11
2022-11-24T13:36:32.777Z,71.62
2022-11-24T13:39:02.533Z,72.74
2022-11-24T13:42:10.397Z,72.13
2022-11-24T13:44:59.535Z,72.46
2022-11-24T13:47:36.257Z,71.50
2022-11-24T13:50:13.916Z,72.01
2022-11-24T13:52:46.358Z,72.22
2022-11-24T13:55:28.018Z,71.03
2022-11-24T13:58:00.170Z,70.06
2022-11-24T14:00:30.761Z,70.65
2022-11-24T14:03:02.100Z,70.03
2022-11-24T14:05:37.862Z,69.82
2022-11-24T14:08:08.227Z,70.70
2022-11-24T14:10:38.351Z,70.22
2022-11-24T14:13:26.489Z,70.28
2022-11-24T14:16:05.168Z,71.26
2022-11-24T14:18:34.111Z,72.18
2022-11-24T14:21:23.338Z,70.78
2022-11-24T14:23:53.737Z,69.96
2022-11-24T14:26:23.584Z,70.20
2022-11-24T14:28:52.434Z,69.97
2022-11-24T14:31:24.002Z,70.37
2022-11-24T14:34:07.797Z,70.10
2022-11-24T14:36:37.095Z,70.05
2022-11-24T14:39:06.044Z,70.28
2022-11-24T14:41:35.028Z,70.32
2022-11-24T14:44:18.000Z,70.21
2022-11-24T14:46:46.129Z,69.87
2022-11-24T14:49:19.896Z,70.43
2022-11-24T14:51:55.860Z,70.25
2022-11-24T14:54:24.658Z,71.70
2022-11-24T14:57:01.959Z,71.15
2022-11-24T14:59:31.436Z,70.84
2022-11-24T15:02:00.632Z,70.95
2022-11-24T15:05:02.304Z,72.13
2022-11-24T15:07:26.647Z,72.34
2022-11-24T15:09:58.048Z,71.80
2022-11-24T15:12:30.583Z,72.56
2022-11-24T15:15:02.336Z,72.10
2022-11-24T15:17:31.050Z,71.31
2022-11-24T15:20:03.114Z,71.09
2022-11-24T15:22:41.316Z,70.74
2022-11-24T15:25:36.451Z,71.45
2022-11-24T15:28:04.565Z,71.76
2022-11-24T15:30:36.012Z,71.72
2022-11-24T15:33:04.513Z,71.75
2022-11-24T15:35:33.642Z,72.16
2022-11-24T15:38:02.923Z,72.25
2022-11-24T15:40:31.636Z,73.14
2022-11-24T15:43:03.461Z,72.37
2022-11-24T15:45:35.373Z,72.73
2022-11-24T15:48:03.289Z,72.91
2022-11-24T15:50:31.315Z,72.32
2022-11-24T15:52:59.374Z,72.26
2022-11-24T15:55:28.688Z,72.84
2022-11-24T15:57:56.533Z,72.96
2022-11-24T16:00:25.005Z,73.06
2022-11-24T16:02:52.919Z,72.76
2022-11-24T16:05:20.760Z,73.12
2022-11-24T16:07:48.706Z,73.73
2022-11-24T16:10:25.616Z,72.81
2022-11-24T16:12:54.942Z,72.65
2022-11-24T16:15:22.862Z,72.75
2022-11-24T16:17:50.867Z,72.50
2022-11-24T16:20:18.862Z,73.65
2022-11-24T16:22:47.279Z,74.96
2022-11-24T16:25:15.387Z,75.05
2022-11-24T16:27:43.380Z,74.79
2022-11-24T16:30:14.377Z,74.68
2022-11-24T16:32:42.583Z,74.35
2022-11-24T16:35:10.728Z,73.51
2022-11-24T16:37:38.758Z,73.55
2022-11-24T16:40:07.862Z,73.00
2022-11-24T16:42:35.814Z,74.82
2022-11-24T16:45:03.782Z,74.47
2022-11-24T16:47:33.036Z,74.59
2022-11-24T16:50:00.941Z,74.27
2022-11-24T16:52:28.844Z,74.15
2022-11-24T16:54:56.677Z,74.74
2022-11-24T16:57:24.545Z,74.99
2022-11-24T16:59:52.391Z,77.53
2022-11-24T17:02:20.477Z,76.04
2022-11-24T17:04:52.269Z,76.81
2022-11-24T17:07:20.972Z,76.26
2022-11-24T17:09:49.465Z,76.43
2022-11-24T17:12:17.403Z,76.58
2022-11-24T17:15:03.110Z,75.95
2022-11-24T17:17:33.311Z,75.15
2022-11-24T17:20:02.561Z,74.63
2022-11-24T17:22:30.694Z,74.31
2022-11-24T17:24:58.548Z,75.29
2022-11-24T17:27:26.551Z,75.17
2022-11-24T17:29:54.573Z,75.42
2022-11-24T17:32:22.451Z,74.98
2022-11-24T17:34:50.345Z,74.57
2022-11-24T17:37:19.585Z,75.27
2022-11-24T17:40:12.557Z,74.87
2022-11-24T17:42:36.893Z,75.27
2022-11-24T17:45:05.480Z,74.94
2022-11-24T17:47:33.346Z,75.16
2022-11-24T17:50:01.205Z,76.00
2022-11-24T17:52:31.825Z,75.20
2022-11-24T17:54:59.997Z,74.62
2022-11-24T17:57:27.996Z,74.83
2022-11-24T17:59:55.903Z,74.04
2022-11-24T18:02:23.815Z,74.94
2022-11-24T18:04:51.770Z,74.29
2022-11-24T18:07:19.682Z,75.12
2022-11-24T18:09:49.027Z,75.50
2022-11-24T18:12:16.887Z,74.73
2022-11-24T18:14:44.760Z,74.38
2022-11-24T18:17:12.643Z,74.97
2022-11-24T18:19:40.537Z,75.02
2022-11-24T18:22:08.352Z,75.31
2022-11-24T18:24:36.498Z,74.71
2022-11-24T18:27:06.138Z,74.86
2022-11-24T18:29:34.019Z,74.74
2022-11-24T18:32:02.270Z,74.83
2022-11-24T18:34:30.335Z,74.78
2022-11-24T18:36:58.203Z,74.76
2022-11-24T18:39:26.556Z,74.82
2022-11-24T18:41:54.434Z,75.66
2022-11-24T18:44:23.754Z,76.65
2022-11-24T18:46:51.682Z,75.85
2022-11-24T18:49:19.491Z,76.01
2022-11-24T18:51:47.274Z,75.50
2022-11-24T18:54:15.107Z,75.24
2022-11-24T18:56:42.968Z,75.17
2022-11-24T18:59:10.802Z,75.46
2022-11-24T19:01:40.073Z,75.90
2022-11-24T19:04:07.992Z,75.06
2022-11-24T19:06:38.665Z,75.31
2022-11-24T19:09:08.225Z,75.04
2022-11-24T19:11:38.931Z,75.77
2022-11-24T19:14:09.852Z,76.56
2022-11-24T19:16:38.056Z,76.92
2022-11-24T19:19:07.803Z,76.72
2022-11-24T19:21:38.186Z,76.76
2022-11-24T19:24:07.693Z,75.75
2022-11-24T19:26:35.855Z,75.65
2022-11-24T19:29:04.574Z,76.35
2022-11-24T19:31:33.085Z,76.27
2022-11-24T19:34:02.888Z,76.64
2022-11-24T19:36:32.644Z,75.89
2022-11-24T19:39:00.922Z,76.34
2022-11-24T19:41:31.112Z,77.30
2022-11-24T19:44:00.020Z,77.50
2022-11-24T19:46:29.793Z,75.97
2022-11-24T19:49:00.588Z,76.78
2022-11-24T19:51:31.288Z,77.43
2022-11-24T19:54:01.407Z,77.74
2022-11-24T19:56:31.456Z,78.23
2022-11-24T19:58:59.471Z,78.62
2022-11-24T20:01:29.650Z,77.25
2022-11-24T20:03:59.303Z,77.12
2022-11-24T20:06:28.185Z,78.50
2022-11-24T20:08:57.932Z,77.12
2022-11-24T20:11:29.577Z,78.83
2022-11-24T20:13:58.321Z,78.65
2022-11-24T20:16:28.269Z,78.88
2022-11-24T20:18:57.709Z,78.83
2022-11-24T20:21:28.585Z,78.74
2022-11-24T20:23:58.680Z,77.66
2022-11-24T20:26:29.708Z,78.46
2022-11-24T20:28:59.445Z,78.07
2022-11-24T20:31:29.272Z,78.45
2022-11-24T20:33:57.591Z,79.24
2022-11-24T20:36:27.927Z,77.44
2022-11-24T20:38:56.181Z,77.76
2022-11-24T20:41:26.468Z,77.96
2022-11-24T20:43:57.359Z,77.86
2022-11-24T20:46:27.102Z,77.70
2022-11-24T20:48:55.587Z,77.70
2022-11-24T20:51:25.577Z,79.07
2022-11-24T20:53:54.887Z,78.97
2022-11-24T20:56:24.383Z,77.99
2022-11-24T20:58:52.891Z,76.70
2022-11-24T21:01:24.595Z,78.22
2022-11-24T21:03:55.408Z,78.75
2022-11-24T21:06:23.810Z,79.23
2022-11-24T21:08:52.346Z,79.69
2022-11-24T21:11:21.154Z,79.87
2022-11-24T21:13:50.166Z,79.57
2022-11-24T21:16:19.908Z,80.21
2022-11-24T21:18:51.166Z,80.31
2022-11-24T21:21:20.408Z,79.33
2022-11-24T21:23:48.954Z,79.94
2022-11-24T21:26:18.302Z,79.19
2022-11-24T21:28:48.245Z,79.43
2022-11-24T21:31:18.292Z,78.29
2022-11-24T21:33:47.595Z,78.08
2022-11-24T21:36:18.866Z,78.44
2022-11-24T21:38:51.619Z,78.79
2022-11-24T21:41:20.124Z,79.03
2022-11-24T21:43:48.386Z,79.45
2022-11-24T21:46:16.499Z,79.32
2022-11-24T21:48:44.544Z,79.75
2022-11-24T21:51:15.527Z,79.83
2022-11-24T21:53:46.526Z,79.49
2022-11-24T21:56:19.655Z,79.81
2022-11-24T21:58:49.017Z,79.94
2022-11-24T22:01:19.555Z,79.66
2022-11-24T22:03:47.757Z,79.89
2022-11-24T22:06:17.757Z,79.39
2022-11-24T22:08:47.734Z,80.46
2022-11-24T22:11:17.546Z,80.31
2022-11-24T22:13:45.971Z,80.69
2022-11-24T22:16:15.148Z,81.19
2022-11-24T22:18:44.342Z,80.28
2022-11-24T22:21:13.841Z,79.72
2022-11-24T22:23:41.680Z,80.23
2022-11-24T22:26:14.253Z,79.78
2022-11-24T22:28:42.931Z,79.58
2022-11-24T22:31:12.377Z,79.63
2022-11-24T22:33:40.312Z,79.22
2022-11-24T22:36:09.176Z,79.15
2022-11-24T22:38:37.169Z,79.23
2022-11-24T22:41:07.003Z,79.21
2022-11-24T22:43:38.472Z,78.44
2022-11-24T22:46:07.354Z,78.76
2022-11-24T22:48:35.631Z,79.66
2022-11-24T22:51:04.883Z,79.45
2022-11-24T22:53:32.757Z,78.83
2022-11-24T22:56:05.047Z,79.08
2022-11-24T22:58:33.584Z,78.95
2022-11-24T23:01:07.213Z,79.57
2022-11-24T23:03:35.865Z,79.16
2022-11-24T23:06:04.932Z,78.36
2022-11-24T23:08:34.768Z,78.97
2022-11-24T23:11:04.414Z,79.26
2022-11-24T23:13:32.467Z,79.62
2022-11-24T23:16:04.132Z,79.36
2022-11-24T23:18:33.710Z,78.58
2022-11-24T23:21:06.934Z,79.04
2022-11-24T23:23:34.754Z,78.50
2022-11-24T23:26:03.374Z,79.22
2022-11-24T23:28:31.760Z,78.52
2022-11-24T23:31:03.916Z,78.79
2022-11-24T23:33:33.634Z,79.15
2022-11-24T23:36:03.131Z,78.69
2022-11-24T23:38:32.788Z,79.00
2022-11-24T23:41:01.738Z,78.68
2022-11-24T23:43:29.631Z,79.23
2022-11-24T23:46:03.222Z,78.77
2022-11-24T23:48:31.212Z,78.90
2022-11-24T23:51:04.761Z,78.61
2022-11-24T23:53:32.804Z,78.39
2022-11-24T23:56:00.909Z,79.60
2022-11-24T23:58:29.142Z,79.26
